createdAt,value
2023-02-24T00:02:50.206Z,8.87
2023-02-24T00:05:54.364Z,8.84
2023-02-24T00:08:58.544Z,8.85
2023-02-24T00:12:05.898Z,8.84
2023-02-24T00:15:10.061Z,8.79
2023-02-24T00:18:14.175Z,8.76
2023-02-24T00:21:19.970Z,8.70
2023-02-24T00:24:24.247Z,8.66
2023-02-24T00:27:28.433Z,8.60
2023-02-24T00:30:32.972Z,8.57
2023-02-24T00:33:39.607Z,8.49
2023-02-24T00:36:43.736Z,8.46
2023-02-24T00:39:47.980Z,8.49
2023-02-24T00:42:53.972Z,8.45
2023-02-24T00:46:02.545Z,8.45
2023-02-24T00:49:12.599Z,8.43
2023-02-24T00:52:20.003Z,8.41
2023-02-24T00:55:24.135Z,8.39
2023-02-24T00:58:29.824Z,8.44
2023-02-24T01:01:34.917Z,8.34
2023-02-24T01:04:39.130Z,8.28
2023-02-24T01:07:43.367Z,8.23
2023-02-24T01:11:19.433Z,8.20
2023-02-24T01:14:27.976Z,8.22
2023-02-24T01:17:32.150Z,8.15
2023-02-24T01:20:38.418Z,8.17
2023-02-24T01:23:42.642Z,8.08
2023-02-24T01:26:46.819Z,8.14
2023-02-24T01:29:50.662Z,8.07
2023-02-24T01:32:54.918Z,8.11
2023-02-24T01:36:21.114Z,8.09
2023-02-24T01:39:26.086Z,8.09
2023-02-24T01:42:30.275Z,8.02
2023-02-24T01:45:41.991Z,7.98
2023-02-24T01:48:45.808Z,7.98
2023-02-24T01:51:54.352Z,7.99
2023-02-24T01:55:16.623Z,8.00
2023-02-24T01:58:25.795Z,7.94
2023-02-24T02:01:29.920Z,7.90
2023-02-24T02:04:42.785Z,7.94
2023-02-24T02:07:46.729Z,7.91
2023-02-24T02:10:58.198Z,7.90
2023-02-24T02:14:02.235Z,7.81
2023-02-24T02:17:17.844Z,7.76
2023-02-24T02:20:27.896Z,7.53
2023-02-24T02:24:07.248Z,7.29
2023-02-24T02:27:59.109Z,7.05
2023-02-24T02:31:25.889Z,6.83
2023-02-24T02:34:45.466Z,6.82
2023-02-24T02:37:57.688Z,6.80
2023-02-24T02:41:13.424Z,6.72
2023-02-24T02:44:32.244Z,6.57
2023-02-24T02:47:47.045Z,6.46
2023-02-24T02:51:16.846Z,6.41
2023-02-24T02:54:35.866Z,6.33
2023-02-24T02:57:47.206Z,6.30
2023-02-24T03:01:02.439Z,6.19
2023-02-24T03:04:09.732Z,6.16
2023-02-24T03:07:17.707Z,6.12
2023-02-24T03:10:29.825Z,6.19
2023-02-24T03:13:39.326Z,6.09
2023-02-24T03:16:49.081Z,6.10
2023-02-24T03:20:01.293Z,6.16
2023-02-24T03:23:11.251Z,6.18
2023-02-24T03:26:21.130Z,6.16
2023-02-24T03:29:44.564Z,6.17
2023-02-24T03:33:01.249Z,6.24
2023-02-24T03:36:05.769Z,6.20
2023-02-24T03:39:12.294Z,6.23
2023-02-24T03:42:19.009Z,6.16
2023-02-24T03:45:23.910Z,6.15
2023-02-24T03:48:29.008Z,6.07
2023-02-24T03:51:33.861Z,6.05
2023-02-24T03:54:55.962Z,6.10
2023-02-24T03:58:28.319Z,6.02
2023-02-24T04:01:49.571Z,6.00
2023-02-24T04:05:06.383Z,5.99
2023-02-24T04:08:10.495Z,5.96
2023-02-24T04:11:20.673Z,6.00
2023-02-24T04:14:33.164Z,5.95
2023-02-24T04:17:45.531Z,5.96
2023-02-24T04:20:53.024Z,5.99
2023-02-24T04:24:00.729Z,6.03
2023-02-24T04:27:08.997Z,6.05
2023-02-24T04:30:13.391Z,6.07
2023-02-24T04:33:18.479Z,6.09
2023-02-24T04:36:22.821Z,6.09
2023-02-24T04:39:27.032Z,5.98
2023-02-24T04:42:31.186Z,5.95
2023-02-24T04:45:35.802Z,5.91
2023-02-24T04:48:39.867Z,5.92
2023-02-24T04:51:44.652Z,5.93
2023-02-24T04:54:48.547Z,5.92
2023-02-24T04:57:53.416Z,5.83
2023-02-24T05:00:57.467Z,5.82
2023-02-24T05:04:01.719Z,5.83
2023-02-24T05:07:06.328Z,5.91
2023-02-24T05:10:11.095Z,5.82
2023-02-24T05:13:17.655Z,5.82
2023-02-24T05:16:22.235Z,5.72
2023-02-24T05:19:45.252Z,5.73
2023-02-24T05:22:53.154Z,5.70
2023-02-24T05:25:58.381Z,5.70
2023-02-24T05:29:04.544Z,5.73
2023-02-24T05:32:09.094Z,5.75
2023-02-24T05:35:13.259Z,5.79
2023-02-24T05:38:19.691Z,5.77
2023-02-24T05:41:32.319Z,5.72
2023-02-24T05:44:36.352Z,5.71
2023-02-24T05:47:40.930Z,5.71
2023-02-24T05:50:52.218Z,5.70
2023-02-24T05:53:56.415Z,5.67
2023-02-24T05:57:02.731Z,5.70
2023-02-24T06:00:26.066Z,5.72
2023-02-24T06:03:31.020Z,5.74
2023-02-24T06:06:40.646Z,5.78
2023-02-24T06:09:53.465Z,5.77
2023-02-24T06:12:57.799Z,5.66
2023-02-24T06:16:01.786Z,5.67
2023-02-24T06:19:07.662Z,5.67
2023-02-24T06:22:14.314Z,5.67
2023-02-24T06:25:18.573Z,5.58
2023-02-24T06:28:24.892Z,5.64
2023-02-24T06:31:28.872Z,5.68
2023-02-24T06:34:33.103Z,5.71
2023-02-24T06:37:36.904Z,5.69
2023-02-24T06:40:42.569Z,5.69
2023-02-24T06:43:48.332Z,5.67
2023-02-24T06:46:52.382Z,5.62
2023-02-24T06:49:56.548Z,5.60
2023-02-24T06:53:01.607Z,5.68
2023-02-24T06:56:15.892Z,5.62
2023-02-24T06:59:22.747Z,5.74
2023-02-24T07:02:33.332Z,5.84
2023-02-24T07:05:37.350Z,5.84
2023-02-24T07:08:44.006Z,5.95
2023-02-24T07:11:52.514Z,5.92
2023-02-24T07:14:56.783Z,5.81
2023-02-24T07:18:00.553Z,5.89
2023-02-24T07:21:05.142Z,5.88
2023-02-24T07:24:20.309Z,5.89
2023-02-24T07:27:25.527Z,5.90
2023-02-24T07:30:30.773Z,5.85
2023-02-24T07:33:38.997Z,5.80
2023-02-24T07:36:49.215Z,5.83
2023-02-24T07:39:53.275Z,5.88
2023-02-24T07:42:57.289Z,5.95
2023-02-24T07:46:16.726Z,6.02
2023-02-24T07:49:25.823Z,6.00
2023-02-24T07:52:32.537Z,6.07
2023-02-24T07:55:38.321Z,6.08
2023-02-24T07:58:57.670Z,6.14
2023-02-24T08:02:04.743Z,6.13
2023-02-24T08:05:09.526Z,6.22
2023-02-24T08:08:13.222Z,6.27
2023-02-24T08:11:17.039Z,6.42
2023-02-24T08:14:24.530Z,6.54
2023-02-24T08:17:28.865Z,6.69
2023-02-24T08:20:51.293Z,6.98
2023-02-24T08:23:55.160Z,7.23
2023-02-24T08:27:05.317Z,7.33
2023-02-24T08:30:21.164Z,7.48
2023-02-24T08:33:28.483Z,7.57
2023-02-24T08:36:32.448Z,7.69
2023-02-24T08:39:36.727Z,7.69
2023-02-24T08:42:41.094Z,7.51
2023-02-24T08:45:50.929Z,7.61
2023-02-24T08:49:02.612Z,7.69
2023-02-24T08:52:07.291Z,7.86
2023-02-24T08:55:12.191Z,7.96
2023-02-24T08:58:18.499Z,7.95
2023-02-24T09:01:25.439Z,8.00
2023-02-24T09:04:29.662Z,7.88
2023-02-24T09:07:40.649Z,7.82
2023-02-24T09:10:46.252Z,7.67
2023-02-24T09:13:54.808Z,7.57
2023-02-24T09:17:02.283Z,7.49
2023-02-24T09:20:27.824Z,7.44
2023-02-24T09:23:46.036Z,7.49
2023-02-24T09:26:58.491Z,8.10
2023-02-24T09:30:08.139Z,8.96
2023-02-24T09:33:20.869Z,9.42
2023-02-24T09:36:28.280Z,9.67
2023-02-24T09:39:53.182Z,10.33
2023-02-24T09:42:58.374Z,9.53
2023-02-24T09:46:16.072Z,8.91
2023-02-24T09:49:44.229Z,8.87
2023-02-24T09:53:00.052Z,8.77
2023-02-24T09:56:28.622Z,8.44
2023-02-24T09:59:54.872Z,8.33
2023-02-24T10:03:42.336Z,8.30
2023-02-24T10:06:49.562Z,8.13
2023-02-24T10:10:18.705Z,8.08
2023-02-24T10:13:30.287Z,7.96
2023-02-24T10:16:41.825Z,7.85
2023-02-24T10:19:46.158Z,8.10
2023-02-24T10:22:56.044Z,8.37
2023-02-24T10:26:07.012Z,8.56
2023-02-24T10:29:30.540Z,8.60
2023-02-24T10:32:47.879Z,8.66
2023-02-24T10:36:03.835Z,8.91
2023-02-24T10:39:25.390Z,8.99
2023-02-24T10:42:34.311Z,9.00
2023-02-24T10:45:45.158Z,9.05
2023-02-24T10:49:00.470Z,8.93
2023-02-24T10:52:09.096Z,8.84
2023-02-24T10:55:45.643Z,8.97
2023-02-24T10:59:20.426Z,8.90
2023-02-24T11:02:32.453Z,8.81
2023-02-24T11:06:01.779Z,8.79
2023-02-24T11:09:19.326Z,8.73
2023-02-24T11:12:44.208Z,8.65
2023-02-24T11:16:13.611Z,8.58
2023-02-24T11:19:18.137Z,8.90
2023-02-24T11:22:27.791Z,8.88
2023-02-24T11:25:46.157Z,8.80
2023-02-24T11:28:53.569Z,8.55
2023-02-24T11:32:18.984Z,8.49
2023-02-24T11:35:30.103Z,8.30
2023-02-24T11:39:03.175Z,8.21
2023-02-24T11:42:23.244Z,8.16
2023-02-24T11:45:39.531Z,8.29
2023-02-24T11:48:56.916Z,8.28
2023-02-24T11:52:04.442Z,8.28
2023-02-24T11:55:22.544Z,8.25
2023-02-24T11:58:35.570Z,8.27
2023-02-24T12:01:45.978Z,8.19
2023-02-24T12:05:24.720Z,8.21
2023-02-24T12:08:34.860Z,8.12
2023-02-24T12:11:52.226Z,8.09
2023-02-24T12:15:04.289Z,8.10
2023-02-24T12:18:31.867Z,8.10
2023-02-24T12:21:39.927Z,8.15
2023-02-24T12:24:51.470Z,8.15
2023-02-24T12:28:33.986Z,8.17
2023-02-24T12:32:00.487Z,8.28
2023-02-24T12:35:37.686Z,8.24
2023-02-24T12:38:53.150Z,8.27
2023-02-24T12:42:29.950Z,8.36
2023-02-24T12:46:00.565Z,8.07
2023-02-24T12:49:09.372Z,7.94
2023-02-24T12:52:38.552Z,7.89
2023-02-24T12:55:57.425Z,7.76
2023-02-24T12:59:05.340Z,7.71
2023-02-24T13:02:34.212Z,7.69
2023-02-24T13:05:55.986Z,7.59
2023-02-24T13:09:11.805Z,7.60
2023-02-24T13:12:28.006Z,7.52
2023-02-24T13:15:31.864Z,7.42
2023-02-24T13:18:39.550Z,7.45
2023-02-24T13:21:43.721Z,7.27
2023-02-24T13:24:54.240Z,7.22
2023-02-24T13:28:04.735Z,7.21
2023-02-24T13:31:11.445Z,7.04
2023-02-24T13:34:21.499Z,6.99
2023-02-24T13:37:28.343Z,6.83
2023-02-24T13:40:32.206Z,6.60
2023-02-24T13:43:36.393Z,6.43
2023-02-24T13:46:56.880Z,6.43
2023-02-24T13:50:21.852Z,6.37
2023-02-24T13:53:59.944Z,6.32
2023-02-24T13:57:30.643Z,6.22
2023-02-24T14:01:05.037Z,6.06
2023-02-24T14:04:15.419Z,6.15
2023-02-24T14:07:29.204Z,6.11
2023-02-24T14:10:34.698Z,5.84
2023-02-24T14:13:39.842Z,5.85
2023-02-24T14:16:48.149Z,5.86
2023-02-24T14:19:52.167Z,5.75
2023-02-24T14:23:00.858Z,5.76
2023-02-24T14:26:06.589Z,5.68
2023-02-24T14:29:10.978Z,5.57
2023-02-24T14:32:24.245Z,5.45
2023-02-24T14:35:42.396Z,5.52
2023-02-24T14:38:46.438Z,5.48
2023-02-24T14:42:03.009Z,5.36
2023-02-24T14:45:17.609Z,5.35
2023-02-24T14:48:30.179Z,5.27
2023-02-24T14:51:35.716Z,5.30
2023-02-24T14:54:49.005Z,5.20
2023-02-24T14:57:56.467Z,5.13
2023-02-24T15:01:05.350Z,5.01
2023-02-24T15:04:21.104Z,4.96
2023-02-24T15:07:29.408Z,4.94
2023-02-24T15:10:33.337Z,4.92
2023-02-24T15:13:42.563Z,4.94
2023-02-24T15:16:49.604Z,4.97
2023-02-24T15:19:56.696Z,5.00
2023-02-24T15:23:01.431Z,4.95
2023-02-24T15:26:06.390Z,4.83
2023-02-24T15:29:15.431Z,4.86
2023-02-24T15:32:25.462Z,4.81
2023-02-24T15:35:30.551Z,4.72
2023-02-24T15:38:38.087Z,4.73
2023-02-24T15:41:47.124Z,4.78
2023-02-24T15:44:56.809Z,4.83
2023-02-24T15:48:03.769Z,4.91
2023-02-24T15:51:07.985Z,4.82
2023-02-24T15:54:25.468Z,4.76
2023-02-24T15:57:31.116Z,4.80
2023-02-24T16:00:35.031Z,4.80
2023-02-24T16:03:39.349Z,4.75
2023-02-24T16:06:54.357Z,4.75
2023-02-24T16:10:00.466Z,4.73
2023-02-24T16:13:04.515Z,4.75
2023-02-24T16:16:12.304Z,4.74
2023-02-24T16:19:17.241Z,4.56
2023-02-24T16:22:21.175Z,4.50
2023-02-24T16:25:26.980Z,4.51
2023-02-24T16:28:32.378Z,4.38
2023-02-24T16:31:36.605Z,4.36
2023-02-24T16:34:41.012Z,4.39
2023-02-24T16:37:47.188Z,4.34
2023-02-24T16:40:51.184Z,4.39
2023-02-24T16:43:55.367Z,4.29
2023-02-24T16:47:00.732Z,4.25
2023-02-24T16:50:06.719Z,4.23
2023-02-24T16:53:16.022Z,4.20
2023-02-24T16:56:19.951Z,4.06
2023-02-24T16:59:26.518Z,4.11
2023-02-24T17:02:30.759Z,4.15
2023-02-24T17:05:35.177Z,4.14
2023-02-24T17:08:41.561Z,4.16
2023-02-24T17:11:45.639Z,4.12
2023-02-24T17:14:49.920Z,4.14
2023-02-24T17:17:54.141Z,4.18
2023-02-24T17:20:58.234Z,4.06
2023-02-24T17:24:02.548Z,4.04
2023-02-24T17:27:07.815Z,4.01
2023-02-24T17:30:19.741Z,3.99
2023-02-24T17:33:23.931Z,4.00
2023-02-24T17:36:28.727Z,3.99
2023-02-24T17:39:32.725Z,3.98
2023-02-24T17:42:36.924Z,3.95
2023-02-24T17:45:44.833Z,3.95
2023-02-24T17:48:49.112Z,3.99
2023-02-24T17:51:53.188Z,3.97
2023-02-24T17:54:57.883Z,3.98
2023-02-24T17:58:01.892Z,4.02
2023-02-24T18:01:06.640Z,4.02
2023-02-24T18:04:14.667Z,4.07
2023-02-24T18:07:19.233Z,4.09
2023-02-24T18:10:23.393Z,4.13
2023-02-24T18:13:29.386Z,4.17
2023-02-24T18:16:33.301Z,4.22
2023-02-24T18:19:37.334Z,4.28
2023-02-24T18:22:41.330Z,4.25
2023-02-24T18:25:45.603Z,4.30
2023-02-24T18:28:52.019Z,4.42
2023-02-24T18:31:56.444Z,4.37
2023-02-24T18:35:00.387Z,4.47
2023-02-24T18:38:06.005Z,4.44
2023-02-24T18:41:14.290Z,4.40
2023-02-24T18:44:18.678Z,4.48
2023-02-24T18:47:22.678Z,4.55
2023-02-24T18:50:26.830Z,4.49
2023-02-24T18:53:35.768Z,4.50
2023-02-24T18:56:39.839Z,4.63
2023-02-24T18:59:48.669Z,4.52
2023-02-24T19:02:52.773Z,4.52
2023-02-24T19:05:57.061Z,4.52
2023-02-24T19:09:10.374Z,4.53
2023-02-24T19:12:15.102Z,4.54
2023-02-24T19:15:19.370Z,4.59
2023-02-24T19:18:23.625Z,4.55
2023-02-24T19:21:29.169Z,4.59
2023-02-24T19:24:33.492Z,4.62
2023-02-24T19:27:37.651Z,4.56
2023-02-24T19:30:42.167Z,4.61
2023-02-24T19:33:52.695Z,4.57
2023-02-24T19:36:56.925Z,4.69
2023-02-24T19:40:01.172Z,4.71
2023-02-24T19:43:06.655Z,4.63
2023-02-24T19:46:13.953Z,4.69
2023-02-24T19:49:18.120Z,4.75
2023-02-24T19:52:22.195Z,4.78
2023-02-24T19:55:26.790Z,4.69
2023-02-24T19:58:31.105Z,4.52
2023-02-24T20:01:35.454Z,4.55
2023-02-24T20:04:39.802Z,4.59
2023-02-24T20:07:44.317Z,4.52
2023-02-24T20:10:58.378Z,4.59
2023-02-24T20:14:02.932Z,4.63
2023-02-24T20:17:07.059Z,4.58
2023-02-24T20:20:13.028Z,4.57
2023-02-24T20:23:17.067Z,4.63
2023-02-24T20:26:21.761Z,4.61
2023-02-24T20:29:26.054Z,4.71
2023-02-24T20:32:30.404Z,4.73
2023-02-24T20:35:39.983Z,4.75
2023-02-24T20:38:44.002Z,4.72
2023-02-24T20:41:49.505Z,4.74
2023-02-24T20:44:53.702Z,4.74
2023-02-24T20:47:58.180Z,4.72
2023-02-24T20:51:06.518Z,4.83
2023-02-24T20:54:13.067Z,4.75
2023-02-24T20:57:17.288Z,4.75
2023-02-24T21:00:21.510Z,4.78
2023-02-24T21:03:25.607Z,4.79
2023-02-24T21:06:30.175Z,4.82
2023-02-24T21:09:37.101Z,4.82
2023-02-24T21:12:41.608Z,4.86
2023-02-24T21:15:56.230Z,4.79
2023-02-24T21:19:00.705Z,4.79
2023-02-24T21:22:05.912Z,4.77
2023-02-24T21:25:10.806Z,4.76
2023-02-24T21:28:14.991Z,4.84
2023-02-24T21:31:21.692Z,4.74
2023-02-24T21:34:26.246Z,4.80
2023-02-24T21:37:30.777Z,4.86
2023-02-24T21:40:38.323Z,4.77
2023-02-24T21:43:44.072Z,4.74
2023-02-24T21:46:48.506Z,4.77
2023-02-24T21:49:52.774Z,4.79
2023-02-24T21:52:56.558Z,4.75
2023-02-24T21:56:16.657Z,4.83
2023-02-24T21:59:20.848Z,4.77
2023-02-24T22:02:25.183Z,4.74
2023-02-24T22:05:29.498Z,4.80
2023-02-24T22:08:33.626Z,4.80
2023-02-24T22:11:40.957Z,4.82
2023-02-24T22:14:44.701Z,4.70
2023-02-24T22:17:48.636Z,4.68
2023-02-24T22:20:52.578Z,4.77
2023-02-24T22:23:59.323Z,4.64
2023-02-24T22:27:03.212Z,4.72
2023-02-24T22:30:08.063Z,4.71
2023-02-24T22:33:12.260Z,4.61
2023-02-24T22:36:19.316Z,4.64
2023-02-24T22:39:23.411Z,4.65
2023-02-24T22:42:27.550Z,4.64
2023-02-24T22:45:31.778Z,4.71
2023-02-24T22:48:36.716Z,4.68
2023-02-24T22:51:42.225Z,4.60
2023-02-24T22:54:46.110Z,4.58
2023-02-24T22:57:50.315Z,4.59
2023-02-24T23:00:55.103Z,4.51
2023-02-24T23:04:00.830Z,4.54
2023-02-24T23:07:04.953Z,4.58
2023-02-24T23:10:09.915Z,4.56
2023-02-24T23:13:13.689Z,4.54
2023-02-24T23:16:21.845Z,4.50
2023-02-24T23:19:25.919Z,4.50
2023-02-24T23:22:29.911Z,4.53
2023-02-24T23:25:34.071Z,4.45
2023-02-24T23:28:39.014Z,4.44
2023-02-24T23:31:44.415Z,4.32
2023-02-24T23:34:48.814Z,4.23
2023-02-24T23:37:52.932Z,4.15
2023-02-24T23:40:57.416Z,4.09
2023-02-24T23:44:01.462Z,4.08
2023-02-24T23:47:05.632Z,4.12
2023-02-24T23:50:10.324Z,4.18
2023-02-24T23:53:14.087Z,4.18
2023-02-24T23:56:21.443Z,4.27
2023-02-24T23:59:26.483Z,4.33
